Time;durP1;ratioP1;P1;durP2;ratioP2;P2;SDS_P1;SDS_P2;PMS_P1;PMS_P2;Temp;Humidity;BMP_temperature;BMP_pressure;BME280_temperature;BME280_humidity;BME280_pressure;Samples;Min_cycle;Max_cycle;Signal;HPM_P1;HPM_P2
2021/04/15 00:01:46;;;;;;;7.70;2.60;;;5.30;99.90;;;;;;5013053;28;20025;-59
2021/04/15 00:04:12;;;;;;;6.85;2.80;;;5.40;99.90;;;;;;5013252;28;20468;-59
2021/04/15 00:06:39;;;;;;;2.55;2.35;;;5.20;99.90;;;;;;5012506;28;20042;-57
2021/04/15 00:09:14;;;;;;;3.85;2.72;;;5.20;99.90;;;;;;4995798;28;20117;-58
2021/04/15 00:11:41;;;;;;;3.05;2.75;;;5.30;99.90;;;;;;4994849;28;20034;-59
2021/04/15 00:14:09;;;;;;;5.97;2.95;;;5.30;99.90;;;;;;5013074;28;20080;-58
2021/04/15 00:16:35;;;;;;;5.95;3.40;;;5.20;99.90;;;;;;5012211;28;20037;-60
2021/04/15 00:19:02;;;;;;;3.42;2.53;;;5.10;99.90;;;;;;4995289;28;20030;-58
2021/04/15 00:21:28;;;;;;;4.50;2.72;;;5.10;99.90;;;;;;4994649;28;20036;-59
2021/04/15 00:23:54;;;;;;;7.68;3.30;;;5.20;99.90;;;;;;5013158;28;20022;-58
2021/04/15 00:26:22;;;;;;;3.50;2.92;;;5.30;99.90;;;;;;4995259;28;20384;-58
2021/04/15 00:28:50;;;;;;;3.60;2.40;;;5.20;99.90;;;;;;5012447;28;20033;-58
2021/04/15 00:31:16;;;;;;;3.78;2.50;;;5.20;99.90;;;;;;4995159;28;20495;-58
2021/04/15 00:33:42;;;;;;;10.02;2.85;;;5.30;99.90;;;;;;4994688;28;20109;-59
2021/04/15 00:36:08;;;;;;;3.00;2.60;;;5.30;99.90;;;;;;4994856;28;20132;-59
2021/04/15 00:38:35;;;;;;;4.80;2.83;;;5.20;99.90;;;;;;4994568;28;20037;-58
2021/04/15 00:41:01;;;;;;;7.03;2.85;;;5.20;99.90;;;;;;5012743;28;20026;-58
2021/04/15 00:43:29;;;;;;;5.70;2.45;;;5.20;99.90;;;;;;4995148;28;20225;-58
2021/04/15 00:45:56;;;;;;;5.55;2.83;;;5.10;99.90;;;;;;5012220;28;20033;-58
2021/04/15 00:48:35;;;;;;;6.55;2.67;;;5.10;99.90;;;;;;4994084;28;20050;-58
2021/04/15 00:51:18;;;;;;;8.13;2.90;;;4.70;99.90;;;;;;4994533;28;20084;-59
2021/04/15 00:53:52;;;;;;;4.05;2.38;;;4.70;99.90;;;;;;5011786;28;20030;-59
2021/04/15 00:56:18;;;;;;;2.55;2.35;;;4.60;99.90;;;;;;4994834;28;20030;-59
2021/04/15 00:58:45;;;;;;;4.25;3.00;;;4.70;99.90;;;;;;5011497;28;20069;-59
2021/04/15 01:01:11;;;;;;;4.60;2.75;;;4.70;99.90;;;;;;5012428;28;20033;-58
2021/04/15 01:03:38;;;;;;;4.93;3.00;;;4.60;99.90;;;;;;5011818;28;20045;-59
2021/04/15 01:06:07;;;;;;;3.83;2.90;;;4.70;99.90;;;;;;4994119;28;20084;-58
2021/04/15 01:08:33;;;;;;;7.80;3.30;;;4.60;99.90;;;;;;4993677;28;20551;-59
2021/04/15 01:11:16;;;;;;;5.47;2.90;;;4.60;99.90;;;;;;5011762;28;20045;-59
2021/04/15 01:14:00;;;;;;;3.95;3.05;;;4.80;99.90;;;;;;4993788;28;20030;-59
2021/04/15 01:16:51;;;;;;;3.78;2.35;;;4.80;99.90;;;;;;4994459;28;20026;-58
2021/04/15 01:19:52;;;;;;;2.75;2.30;;;4.70;99.90;;;;;;5012094;28;20109;-57
2021/04/15 01:22:51;;;;;;;6.55;2.90;;;4.70;99.90;;;;;;4994224;28;20022;-58
2021/04/15 01:25:43;;;;;;;5.72;3.10;;;4.60;99.90;;;;;;4994370;28;20539;-58
2021/04/15 01:28:20;;;;;;;4.90;2.70;;;4.60;99.90;;;;;;4994050;28;20136;-57
2021/04/15 01:30:54;;;;;;;5.60;2.88;;;4.60;99.90;;;;;;4993692;28;20137;-58
2021/04/15 01:33:23;;;;;;;3.45;2.72;;;4.60;99.90;;;;;;5011845;28;20057;-57
2021/04/15 01:35:53;;;;;;;4.70;2.40;;;4.70;99.90;;;;;;4993339;28;20094;-59
2021/04/15 01:38:31;;;;;;;5.78;3.08;;;4.70;99.90;;;;;;4994024;28;20430;-58
2021/04/15 01:41:03;;;;;;;3.00;2.63;;;4.60;99.90;;;;;;4993993;28;20455;-58
2021/04/15 01:43:31;;;;;;;;;;;4.60;99.90;;;;;;4994679;28;20049;-58
2021/04/15 01:45:58;;;;;;;4.13;2.80;;;4.60;99.90;;;;;;4993822;28;20283;-57
2021/04/15 01:48:27;;;;;;;2.75;2.55;;;4.60;99.90;;;;;;4993534;28;20064;-58
2021/04/15 01:50:57;;;;;;;6.13;3.03;;;4.60;99.90;;;;;;5010855;28;20034;-58
2021/04/15 01:53:36;;;;;;;3.33;3.03;;;4.50;99.90;;;;;;4993936;28;20440;-59
2021/04/15 01:56:16;;;;;;;4.72;3.03;;;4.50;99.90;;;;;;4993292;28;20057;-58
2021/04/15 01:58:49;;;;;;;4.57;2.70;;;4.50;99.90;;;;;;5009817;28;20084;-59
2021/04/15 02:01:21;;;;;;;6.57;3.05;;;4.60;99.90;;;;;;4993683;28;20029;-58
2021/04/15 02:03:51;;;;;;;3.08;2.30;;;4.60;99.90;;;;;;4993048;28;20080;-59
2021/04/15 02:06:24;;;;;;;5.18;2.80;;;4.50;99.90;;;;;;4993305;28;20073;-58
2021/04/15 02:09:03;;;;;;;6.78;2.80;;;4.60;99.90;;;;;;4993061;28;20052;-58
2021/04/15 02:11:40;;;;;;;5.32;2.92;;;4.50;99.90;;;;;;4993629;28;20458;-57
2021/04/15 02:14:08;;;;;;;4.40;3.22;;;4.40;99.90;;;;;;5011074;28;20479;-58
2021/04/15 02:16:38;;;;;;;5.68;3.08;;;4.40;99.90;;;;;;4992792;28;20052;-59
2021/04/15 02:19:09;;;;;;;6.22;3.03;;;4.40;99.90;;;;;;5011066;28;20022;-58
2021/04/15 02:22:02;;;;;;;4.82;3.78;;;4.50;99.90;;;;;;5010312;28;20026;-59
2021/04/15 02:24:50;;;;;;;4.70;3.10;;;4.40;99.90;;;;;;5011392;28;20080;-59
2021/04/15 02:27:25;;;;;;;6.00;3.03;;;4.40;99.90;;;;;;4993474;28;20034;-58
2021/04/15 02:30:13;;;;;;;3.75;2.70;;;4.40;99.90;;;;;;4992838;28;20026;-58
2021/04/15 02:32:44;;;;;;;5.18;2.92;;;4.40;99.90;;;;;;5002972;28;20431;-58
2021/04/15 02:35:30;;;;;;;7.80;3.50;;;4.40;99.90;;;;;;5011099;28;20301;-59
2021/04/15 02:38:00;;;;;;;5.47;3.13;;;4.30;99.90;;;;;;4992292;28;20093;-59
2021/04/15 02:40:30;;;;;;;5.15;2.90;;;4.30;99.90;;;;;;4993178;28;20053;-58
2021/04/15 02:43:03;;;;;;;3.47;2.95;;;4.30;99.90;;;;;;5010154;28;20032;-58
2021/04/15 02:45:38;;;;;;;5.30;3.58;;;4.30;99.90;;;;;;5010436;28;20026;-57
2021/04/15 02:48:18;;;;;;;3.55;2.97;;;4.30;99.90;;;;;;5010475;28;20068;-57
2021/04/15 02:50:45;;;;;;;3.45;3.03;;;4.30;99.90;;;;;;4992159;28;20116;-58
2021/04/15 02:53:16;;;;;;;3.88;3.47;;;4.30;99.90;;;;;;4992846;28;20026;-57
2021/04/15 02:55:52;;;;;;;7.70;4.10;;;4.20;99.90;;;;;;5010017;28;20461;-59
2021/04/15 02:58:47;;;;;;;4.65;3.08;;;4.20;99.90;;;;;;5010723;28;20045;-58
2021/04/15 03:01:16;;;;;;;4.45;3.20;;;4.30;99.90;;;;;;5009032;28;20147;-58
2021/04/15 03:03:45;;;;;;;5.32;3.60;;;4.20;99.90;;;;;;4992382;28;20029;-58
2021/04/15 03:06:19;;;;;;;5.95;3.50;;;4.30;99.90;;;;;;5010218;28;20499;-58
2021/04/15 03:08:49;;;;;;;6.53;3.20;;;4.20;99.90;;;;;;4992386;28;20426;-58
2021/04/15 03:11:23;;;;;;;5.10;3.60;;;4.30;99.90;;;;;;5012934;28;20192;-57
2021/04/15 03:13:59;;;;;;;4.78;3.40;;;4.10;99.90;;;;;;5013938;28;20041;-58
2021/04/15 03:16:31;;;;;;;4.57;3.83;;;4.10;99.90;;;;;;4996417;28;20167;-58
2021/04/15 03:19:18;;;;;;;5.60;3.80;;;4.10;99.90;;;;;;5013412;28;20483;-58
2021/04/15 03:22:01;;;;;;;7.75;3.67;;;4.10;99.90;;;;;;4995885;28;20045;-58
2021/04/15 03:24:39;;;;;;;4.32;3.83;;;4.10;99.90;;;;;;5014428;28;20037;-59
2021/04/15 03:27:05;;;;;;;4.07;3.67;;;4.00;99.90;;;;;;5014033;28;20044;-59
2021/04/15 03:29:43;;;;;;;4.30;3.67;;;4.20;99.90;;;;;;4996446;28;20034;-57
2021/04/15 03:32:35;;;;;;;17.40;4.18;;;4.20;99.90;;;;;;4996177;28;20026;-58
2021/04/15 03:35:16;;;;;;;8.23;3.72;;;4.10;99.90;;;;;;4993178;28;20030;-57
2021/04/15 03:38:17;;;;;;;4.68;3.60;;;4.10;99.90;;;;;;4995366;28;20093;-57
2021/04/15 03:40:46;;;;;;;4.85;3.78;;;4.10;99.90;;;;;;5010834;28;20056;-58
2021/04/15 03:43:21;;;;;;;5.30;4.75;;;4.10;99.90;;;;;;5013984;28;20033;-58
2021/04/15 03:46:05;;;;;;;4.65;4.13;;;4.10;99.90;;;;;;4995626;28;20022;-57
2021/04/15 03:48:37;;;;;;;5.32;4.03;;;4.10;99.90;;;;;;4996093;28;20372;-58
2021/04/15 03:51:11;;;;;;;5.55;4.70;;;3.90;99.90;;;;;;5013146;28;20440;-57
2021/04/15 03:53:42;;;;;;;5.78;4.00;;;3.90;99.90;;;;;;4995883;28;20057;-58
2021/04/15 03:56:24;;;;;;;4.88;3.97;;;4.00;99.90;;;;;;5013752;28;20018;-58
2021/04/15 03:59:00;;;;;;;5.80;4.72;;;4.00;99.90;;;;;;5013379;28;20452;-58
2021/04/15 04:01:30;;;;;;;6.70;4.40;;;4.00;99.90;;;;;;5013612;28;20026;-59
2021/04/15 04:04:16;;;;;;;6.82;4.93;;;3.90;99.90;;;;;;4995210;28;20021;-58
2021/04/15 04:06:43;;;;;;;6.55;4.88;;;3.90;99.90;;;;;;5012541;28;20087;-59
2021/04/15 04:09:25;;;;;;;6.05;5.25;;;3.90;99.90;;;;;;4995652;28;20168;-58
2021/04/15 04:11:52;;;;;;;;;;;3.80;99.90;;;;;;5013177;28;20379;-58
2021/04/15 04:14:33;;;;;;;7.97;5.53;;;4.00;99.90;;;;;;5013513;28;20426;-58
2021/04/15 04:17:12;;;;;;;6.68;4.47;;;3.90;99.90;;;;;;4994530;28;20030;-58
2021/04/15 04:19:46;;;;;;;9.27;6.53;;;4.00;99.90;;;;;;4995496;28;20030;-58
2021/04/15 04:22:40;;;;;;;9.85;5.10;;;3.90;99.90;;;;;;5011732;28;20053;-58
2021/04/15 04:25:10;;;;;;;6.82;6.13;;;3.80;99.90;;;;;;5012638;28;20167;-59
2021/04/15 04:27:47;;;;;;;5.95;4.80;;;3.80;99.90;;;;;;4995393;28;20029;-58
2021/04/15 04:30:23;;;;;;;7.53;5.18;;;4.00;99.90;;;;;;4995584;28;20118;-59
2021/04/15 04:32:58;;;;;;;7.10;5.30;;;4.00;99.90;;;;;;5012434;28;20022;-59
2021/04/15 04:35:29;;;;;;;8.85;5.43;;;4.00;99.90;;;;;;4995276;28;20096;-58
2021/04/15 04:37:58;;;;;;;13.38;5.68;;;4.00;99.90;;;;;;4993986;28;20030;-58
2021/04/15 04:40:29;;;;;;;10.75;5.30;;;3.90;99.90;;;;;;5012329;28;20030;-58
2021/04/15 04:43:03;;;;;;;10.88;5.80;;;4.00;99.90;;;;;;4994349;28;20022;-59
2021/04/15 04:45:29;;;;;;;6.65;5.45;;;3.90;99.90;;;;;;4995275;28;20038;-58
2021/04/15 04:48:25;;;;;;;12.57;6.50;;;4.00;99.90;;;;;;4994394;28;20125;-58
2021/04/15 04:51:00;;;;;;;7.07;6.15;;;3.90;99.90;;;;;;5011773;28;20525;-58
2021/04/15 04:53:35;;;;;;;7.82;5.85;;;3.90;99.90;;;;;;5012291;28;20428;-58
2021/04/15 04:56:13;;;;;;;13.95;7.13;;;4.10;99.90;;;;;;4994005;28;20026;-58
2021/04/15 04:58:39;;;;;;;7.95;6.22;;;4.00;99.90;;;;;;4994733;28;20079;-58
2021/04/15 05:01:06;;;;;;;11.05;6.10;;;4.00;99.90;;;;;;4994080;28;20033;-59
2021/04/15 05:03:33;;;;;;;16.98;6.95;;;3.80;99.90;;;;;;4994729;28;20030;-58
2021/04/15 05:06:08;;;;;;;8.52;7.45;;;3.90;99.90;;;;;;4993830;28;20033;-57
2021/04/15 05:09:14;;;;;;;10.27;6.53;;;3.80;99.90;;;;;;4994677;28;20034;-58
2021/04/15 05:11:46;;;;;;;13.38;7.32;;;3.90;99.90;;;;;;4987216;28;20124;-59
2021/04/15 05:14:15;;;;;;;9.48;7.35;;;3.90;99.90;;;;;;5013189;28;20062;-59
2021/04/15 05:16:47;;;;;;;8.95;6.97;;;4.00;99.90;;;;;;4994808;28;20117;-59
2021/04/15 05:19:14;;;;;;;8.25;6.68;;;4.00;99.90;;;;;;4994449;28;20022;-58
2021/04/15 05:21:42;;;;;;;9.77;7.18;;;4.10;99.90;;;;;;5012230;28;20033;-58
2021/04/15 05:24:20;;;;;;;10.30;6.13;;;4.00;99.90;;;;;;4993437;28;20076;-58
2021/04/15 05:26:48;;;;;;;11.15;6.45;;;4.10;99.90;;;;;;4993635;28;20034;-57
2021/04/15 05:29:28;;;;;;;11.32;7.35;;;4.20;99.90;;;;;;5011454;28;20483;-58
2021/04/15 05:31:55;;;;;;;9.07;6.82;;;4.30;99.90;;;;;;5011492;28;20379;-58
2021/04/15 05:34:33;;;;;;;12.40;7.25;;;4.10;99.90;;;;;;5011743;28;20097;-58
2021/04/15 05:37:02;;;;;;;11.00;7.20;;;4.20;99.90;;;;;;4993142;28;20038;-58
2021/04/15 05:39:30;;;;;;;9.13;7.18;;;4.30;99.90;;;;;;5011612;28;20034;-59
2021/04/15 05:41:59;;;;;;;8.90;7.32;;;4.30;99.90;;;;;;4993463;28;20026;-58
2021/04/15 05:45:01;;;;;;;10.48;7.85;;;4.30;99.90;;;;;;4993865;28;20041;-58
2021/04/15 05:47:34;;;;;;;9.35;6.93;;;4.40;99.90;;;;;;5004692;28;20057;-59
2021/04/15 05:50:03;;;;;;;12.23;8.32;;;4.30;99.90;;;;;;5011063;28;20029;-58
2021/04/15 05:52:44;;;;;;;10.35;6.85;;;4.50;99.90;;;;;;4993742;28;20029;-58
2021/04/15 05:55:20;;;;;;;9.52;7.18;;;4.60;99.90;;;;;;5011266;28;20060;-59
2021/04/15 05:57:50;;;;;;;10.57;6.95;;;4.60;99.90;;;;;;5011447;28;20057;-59
2021/04/15 06:00:23;;;;;;;10.85;7.47;;;4.60;99.90;;;;;;5011204;28;20026;-59
2021/04/15 06:03:08;;;;;;;8.93;7.25;;;4.60;99.90;;;;;;5010382;28;20033;-59
2021/04/15 06:05:37;;;;;;;12.43;7.65;;;4.70;99.90;;;;;;4993946;28;20541;-58
2021/04/15 06:08:06;;;;;;;10.65;7.13;;;4.70;99.90;;;;;;4992739;28;20065;-59
2021/04/15 06:10:36;;;;;;;14.27;8.32;;;4.90;99.90;;;;;;4993532;28;20152;-58
2021/04/15 06:13:05;;;;;;;10.48;6.53;;;4.90;99.90;;;;;;5010629;28;20048;-59
2021/04/15 06:15:43;;;;;;;12.55;7.20;;;5.00;99.90;;;;;;4992933;28;20049;-59
2021/04/15 06:18:46;;;;;;;11.30;7.43;;;5.10;99.90;;;;;;4992644;28;20045;-58
2021/04/15 06:21:15;;;;;;;10.70;6.38;;;5.10;99.90;;;;;;4992571;28;20034;-59
2021/04/15 06:23:47;;;;;;;15.40;7.82;;;5.30;99.90;;;;;;5010649;28;20029;-58
2021/04/15 06:26:24;;;;;;;12.75;7.05;;;5.30;99.90;;;;;;5009939;28;20436;-59
2021/04/15 06:28:52;;;;;;;8.85;7.00;;;5.60;99.90;;;;;;4992183;28;20129;-60
2021/04/15 06:31:37;;;;;;;12.48;8.10;;;5.70;99.90;;;;;;4992914;28;20034;-60
2021/04/15 06:34:06;;;;;;;10.70;6.65;;;5.70;99.90;;;;;;5010264;28;20133;-59
2021/04/15 06:36:41;;;;;;;11.85;8.13;;;5.80;99.90;;;;;;4992093;28;20038;-60
2021/04/15 06:39:20;;;;;;;13.05;7.53;;;5.90;99.90;;;;;;4992049;28;20521;-59
2021/04/15 06:42:16;;;;;;;12.70;7.10;;;6.10;99.90;;;;;;5010390;28;20022;-59
2021/04/15 06:45:09;;;;;;;9.82;7.38;;;6.30;99.90;;;;;;4993748;28;20117;-59
2021/04/15 06:48:09;;;;;;;11.07;7.90;;;6.20;99.90;;;;;;4998873;28;20060;-60
2021/04/15 06:51:09;;;;;;;12.43;7.80;;;6.10;99.90;;;;;;4999157;28;20025;-59
2021/04/15 06:53:54;;;;;;;13.02;7.15;;;6.20;99.90;;;;;;4999254;28;20030;-59
2021/04/15 06:57:04;;;;;;;12.50;7.50;;;6.50;99.90;;;;;;4999045;28;20075;-59
2021/04/15 06:59:57;;;;;;;9.00;7.18;;;6.80;99.90;;;;;;4999942;28;20032;-59
2021/04/15 07:02:41;;;;;;;8.05;6.65;;;6.80;99.90;;;;;;4999251;28;20029;-59
2021/04/15 07:05:23;;;;;;;12.77;7.30;;;6.80;99.90;;;;;;4998969;28;20033;-58
2021/04/15 07:08:24;;;;;;;8.43;6.60;;;7.10;99.90;;;;;;4999170;28;20046;-59
2021/04/15 07:10:59;;;;;;;10.10;8.25;;;7.60;99.90;;;;;;5017128;28;20064;-59
2021/04/15 07:13:58;;;;;;;8.38;6.75;;;7.90;99.50;;;;;;4998475;28;20121;-59
2021/04/15 07:16:29;;;;;;;25.17;8.18;;;8.30;99.00;;;;;;5016997;28;20038;-58
2021/04/15 07:19:42;;;;;;;12.60;7.47;;;8.20;98.80;;;;;;5016186;28;20136;-61
2021/04/15 07:22:25;;;;;;;11.65;7.75;;;8.30;98.30;;;;;;4997359;28;20042;-60
2021/04/15 07:25:11;;;;;;;12.55;7.63;;;8.20;98.50;;;;;;4998807;28;20026;-60
2021/04/15 07:28:04;;;;;;;11.48;7.40;;;8.00;98.60;;;;;;5016945;28;20034;-59
2021/04/15 07:31:14;;;;;;;15.23;6.63;;;8.50;98.10;;;;;;4999071;28;20034;-63
2021/04/15 07:34:09;;;;;;;14.57;8.68;;;9.40;99.90;;;;;;4983837;28;20104;-62
2021/04/15 07:37:08;;;;;;;21.10;6.60;;;10.70;99.90;;;;;;5016289;28;20117;-62
2021/04/15 07:39:48;;;;;;;12.32;6.60;;;12.10;99.90;;;;;;4999558;28;20037;-63
2021/04/15 07:42:32;;;;;;;9.88;7.45;;;12.60;98.10;;;;;;4997259;28;20030;-63
2021/04/15 07:45:09;;;;;;;8.02;5.65;;;11.70;94.00;;;;;;4992965;28;20030;-63
2021/04/15 07:47:56;;;;;;;6.97;5.68;;;11.60;95.70;;;;;;5015097;28;20139;-63
2021/04/15 07:50:25;;;;;;;14.60;6.07;;;11.90;97.20;;;;;;4998675;28;20108;-60
2021/04/15 07:53:27;;;;;;;9.63;6.80;;;11.80;95.40;;;;;;4998774;28;20041;-60
2021/04/15 07:56:34;;;;;;;9.52;6.97;;;11.70;91.70;;;;;;4994109;28;20116;-61
2021/04/15 07:59:15;;;;;;;12.43;7.20;;;11.70;90.80;;;;;;4994602;28;20025;-62
2021/04/15 08:01:47;;;;;;;12.20;6.53;;;11.60;89.80;;;;;;4994085;28;20164;-59
2021/04/15 08:04:42;;;;;;;9.77;7.10;;;11.30;90.70;;;;;;4994848;28;20026;-60
2021/04/15 08:07:22;;;;;;;9.32;7.28;;;11.50;90.30;;;;;;5005861;28;20390;-60
2021/04/15 08:10:09;;;;;;;12.43;7.45;;;11.20;90.10;;;;;;4995483;28;20104;-61
2021/04/15 08:13:00;;;;;;;8.77;7.25;;;11.40;89.80;;;;;;5013403;28;20030;-61
2021/04/15 08:15:40;;;;;;;11.45;6.53;;;11.60;89.40;;;;;;4994994;28;20030;-60
2021/04/15 08:18:12;;;;;;;6.88;6.28;;;11.70;88.70;;;;;;4990976;28;20037;-62
2021/04/15 08:20:44;;;;;;;7.95;7.15;;;11.90;87.60;;;;;;5004406;28;20025;-60
2021/04/15 08:23:45;;;;;;;8.82;6.20;;;12.00;86.70;;;;;;4991749;28;20026;-60
2021/04/15 08:26:33;;;;;;;8.25;5.97;;;12.30;87.70;;;;;;4956356;28;20076;-60
2021/04/15 08:29:24;;;;;;;8.10;6.22;;;12.60;86.30;;;;;;4992043;28;20034;-63
2021/04/15 08:32:09;;;;;;;7.78;6.47;;;12.70;84.40;;;;;;4989594;28;20042;-61
2021/04/15 08:34:59;;;;;;;7.53;6.30;;;13.00;82.70;;;;;;4991007;28;20068;-60
2021/04/15 08:38:01;;;;;;;9.07;6.88;;;13.10;81.20;;;;;;4993365;28;20044;-61
2021/04/15 08:40:53;;;;;;;8.82;6.53;;;13.50;92.20;;;;;;4992639;28;20197;-60
2021/04/15 08:43:31;;;;;;;8.05;5.47;;;13.20;80.90;;;;;;4976677;28;20158;-60
2021/04/15 08:46:19;;;;;;;9.38;6.50;;;13.40;80.70;;;;;;4993181;28;20042;-65
2021/04/15 08:48:56;;;;;;;6.95;5.68;;;13.70;77.80;;;;;;5010822;28;20103;-60
2021/04/15 08:51:44;;;;;;;8.48;5.70;;;13.80;77.00;;;;;;4992386;28;20026;-60
2021/04/15 08:54:35;;;;;;;9.07;6.03;;;13.80;77.90;;;;;;4991754;28;20041;-60
2021/04/15 08:57:36;;;;;;;6.28;5.55;;;14.00;76.10;;;;;;4991615;28;20459;-62
2021/04/15 09:00:16;;;;;;;7.47;5.60;;;14.20;74.60;;;;;;5009128;28;20087;-60
2021/04/15 09:03:03;;;;;;;9.18;6.50;;;13.40;74.20;;;;;;5006882;28;20113;-60
2021/04/15 09:05:40;;;;;;;8.57;6.57;;;13.00;75.20;;;;;;4988328;28;20064;-62
2021/04/15 09:08:33;;;;;;;10.02;5.95;;;13.00;76.10;;;;;;5008098;28;20056;-60
2021/04/15 09:11:30;;;;;;;7.65;6.68;;;13.20;75.90;;;;;;5007981;28;20030;-63
2021/04/15 09:14:14;;;;;;;8.75;6.10;;;13.70;75.40;;;;;;4992468;28;20733;-62
2021/04/15 09:16:43;;;;;;;10.45;6.93;;;14.20;73.90;;;;;;4991396;28;20415;-60
2021/04/15 09:19:27;;;;;;;9.88;5.90;;;14.30;71.90;;;;;;5009122;28;20516;-60
2021/04/15 09:22:07;;;;;;;9.93;6.80;;;13.30;73.50;;;;;;4992185;28;20026;-61
2021/04/15 09:24:43;;;;;;;9.23;7.25;;;13.60;73.80;;;;;;4995028;28;20037;-60
2021/04/15 09:27:30;;;;;;;7.88;6.32;;;13.70;73.60;;;;;;5000208;28;20224;-62
2021/04/15 09:30:00;;;;;;;7.95;6.47;;;13.80;71.90;;;;;;5010100;28;20038;-60
2021/04/15 09:32:55;;;;;;;5.95;4.35;;;14.20;70.60;;;;;;4991854;28;20054;-61
2021/04/15 09:35:42;;;;;;;8.27;5.75;;;14.50;86.50;;;;;;4991077;28;20022;-60
2021/04/15 09:38:14;;;;;;;5.78;3.28;;;15.30;80.30;;;;;;4992162;28;20038;-62
2021/04/15 09:41:01;;;;;;;;;;;16.00;85.60;;;;;;4994133;28;20374;-61
2021/04/15 09:43:42;;;;;;;5.47;4.43;;;17.20;80.60;;;;;;4992835;28;20004;-61
2021/04/15 09:46:37;;;;;;;4.33;2.67;;;17.90;69.20;;;;;;5009264;28;20052;-60
2021/04/15 09:49:35;;;;;;;9.95;8.70;;;18.20;71.40;;;;;;4992242;28;20281;-61
2021/04/15 09:52:32;;;;;;;9.20;6.35;;;18.20;61.70;;;;;;4992354;28;20033;-62
2021/04/15 09:55:20;;;;;;;8.38;5.28;;;17.20;62.70;;;;;;4993360;28;20120;-62
2021/04/15 09:57:49;;;;;;;5.53;3.92;;;17.20;64.70;;;;;;4992817;28;20069;-61
2021/04/15 10:00:17;;;;;;;6.60;3.80;;;17.50;61.00;;;;;;4992133;28;20506;-61
2021/04/15 10:03:09;;;;;;;4.45;3.10;;;18.10;61.10;;;;;;4989845;28;20022;-62
2021/04/15 10:05:39;;;;;;;3.75;3.20;;;18.60;57.50;;;;;;4989729;28;20033;-62
2021/04/15 10:08:22;;;;;;;7.20;4.03;;;18.70;56.30;;;;;;5009981;28;20119;-63
2021/04/15 10:10:57;;;;;;;5.35;3.50;;;19.10;53.40;;;;;;4993237;28;20634;-62
2021/04/15 10:13:29;;;;;;;4.63;3.45;;;18.60;58.30;;;;;;4992018;28;20038;-63
2021/04/15 10:16:33;;;;;;;5.72;2.97;;;19.00;56.30;;;;;;4992988;28;20030;-64
2021/04/15 10:19:19;;;;;;;3.60;2.35;;;18.80;51.40;;;;;;4992435;28;20014;-62
2021/04/15 10:21:58;;;;;;;7.10;2.85;;;18.30;53.20;;;;;;5010223;28;20025;-62
2021/04/15 10:24:32;;;;;;;6.25;3.10;;;17.90;52.00;;;;;;5009926;28;20490;-62
2021/04/15 10:27:00;;;;;;;9.18;3.10;;;17.70;53.50;;;;;;5010608;28;20038;-62
2021/04/15 10:29:26;;;;;;;7.35;2.42;;;17.00;55.30;;;;;;4992437;28;20029;-63
2021/04/15 10:32:26;;;;;;;3.90;3.15;;;16.60;57.00;;;;;;5008469;28;20121;-62
2021/04/15 10:34:52;;;;;;;4.40;2.78;;;16.60;57.50;;;;;;4989839;28;20038;-61
2021/04/15 10:37:18;;;;;;;7.63;3.67;;;15.80;59.10;;;;;;4991040;28;20038;-61
2021/04/15 10:39:55;;;;;;;4.18;3.60;;;15.40;53.90;;;;;;4992770;28;20026;-63
2021/04/15 10:42:36;;;;;;;10.15;4.03;;;14.90;54.40;;;;;;4990212;28;20606;-62
2021/04/15 10:45:27;;;;;;;7.10;3.83;;;14.60;64.30;;;;;;4992058;28;20026;-62
2021/04/15 10:48:20;;;;;;;8.60;4.25;;;15.00;62.30;;;;;;4985378;28;20064;-61
2021/04/15 10:51:05;;;;;;;4.65;3.90;;;15.10;60.70;;;;;;4992031;28;20352;-61
2021/04/15 10:53:34;;;;;;;8.68;4.70;;;15.30;60.30;;;;;;4991829;28;20044;-61
2021/04/15 10:56:23;;;;;;;4.68;3.40;;;14.80;59.80;;;;;;4985985;28;20376;-62
2021/04/15 10:58:51;;;;;;;7.22;4.25;;;14.90;61.40;;;;;;5009878;28;20022;-62
2021/04/15 11:01:29;;;;;;;9.23;3.42;;;14.60;59.70;;;;;;5008797;28;20030;-62
2021/04/15 11:04:02;;;;;;;6.45;4.45;;;14.50;60.90;;;;;;4991908;28;20100;-62
2021/04/15 11:06:51;;;;;;;3.85;3.10;;;14.20;55.60;;;;;;5009054;28;20487;-61
2021/04/15 11:09:35;;;;;;;9.23;4.15;;;14.40;54.50;;;;;;4991199;28;20038;-62
2021/04/15 11:12:12;;;;;;;8.68;3.70;;;14.80;54.70;;;;;;4992246;28;20103;-61
2021/04/15 11:15:22;;;;;;;4.82;3.10;;;14.30;53.80;;;;;;4992009;28;20030;-61
2021/04/15 11:17:49;;;;;;;4.53;2.85;;;14.20;53.80;;;;;;4989885;28;20048;-62
2021/04/15 11:20:21;;;;;;;4.15;2.33;;;14.60;67.30;;;;;;4994556;28;20557;-62
2021/04/15 11:23:26;;;;;;;4.40;1.73;;;14.70;56.20;;;;;;4990288;28;20822;-62
2021/04/15 11:25:53;;;;;;;15.15;1.98;;;14.30;49.70;;;;;;4985703;28;20045;-63
2021/04/15 11:28:19;;;;;;;4.03;1.98;;;13.90;51.40;;;;;;4989312;28;20427;-60
2021/04/15 11:30:52;;;;;;;6.85;2.30;;;13.00;50.70;;;;;;4992747;28;20029;-62
2021/04/15 11:33:47;;;;;;;6.13;2.03;;;12.40;53.80;;;;;;5011057;28;20042;-62
2021/04/15 11:36:18;;;;;;;11.30;3.85;;;12.70;55.00;;;;;;5005376;28;20025;-61
2021/04/15 11:38:48;;;;;;;6.38;3.05;;;12.70;56.90;;;;;;4988572;28;20026;-61
2021/04/15 11:41:23;;;;;;;7.07;3.40;;;12.80;57.80;;;;;;4993374;28;20030;-60
2021/04/15 11:44:00;;;;;;;8.93;3.97;;;13.00;58.30;;;;;;4994359;28;20559;-62
2021/04/15 11:46:48;;;;;;;4.47;3.47;;;12.70;57.90;;;;;;4992828;28;20026;-61
2021/04/15 11:49:23;;;;;;;13.93;4.60;;;13.00;58.40;;;;;;4994042;28;20018;-61
2021/04/15 11:52:12;;;;;;;8.38;3.85;;;12.70;58.10;;;;;;4994111;28;20209;-61
2021/04/15 11:54:52;;;;;;;23.30;6.10;;;12.90;58.10;;;;;;5008228;28;20034;-59
2021/04/15 11:57:31;;;;;;;15.15;4.30;;;12.20;59.00;;;;;;4993431;28;20030;-62
2021/04/15 12:00:00;;;;;;;13.65;4.63;;;12.80;59.80;;;;;;5012508;28;20580;-61
2021/04/15 12:02:34;;;;;;;10.57;3.67;;;13.30;57.50;;;;;;4994230;28;20109;-60
2021/04/15 12:05:12;;;;;;;8.07;2.22;;;13.90;56.30;;;;;;4988488;28;20573;-50
2021/04/15 12:07:42;;;;;;;4.28;2.20;;;15.40;67.40;;;;;;5012700;28;20041;-50
2021/04/15 12:10:10;;;;;;;5.65;2.63;;;16.20;60.10;;;;;;4981353;28;20167;-54
2021/04/15 12:12:39;;;;;;;6.75;2.13;;;17.00;58.00;;;;;;4992940;28;20026;-48
2021/04/15 12:15:09;;;;;;;2.25;1.95;;;17.70;58.50;;;;;;4992673;28;20045;-57
2021/04/15 12:18:01;;;;;;;3.42;1.92;;;17.70;64.00;;;;;;4996123;28;20040;-49
2021/04/15 12:20:39;;;;;;;4.75;1.88;;;17.40;57.30;;;;;;4992500;28;20380;-50
2021/04/15 12:23:26;;;;;;;10.70;2.53;;;16.00;61.10;;;;;;4992919;28;20025;-55
2021/04/15 12:26:02;;;;;;;7.78;2.00;;;15.10;64.40;;;;;;4993038;28;20120;-52
2021/04/15 12:28:35;;;;;;;8.15;1.98;;;15.70;66.20;;;;;;4992745;28;20045;-51
2021/04/15 12:31:13;;;;;;;11.13;3.28;;;15.50;63.00;;;;;;5010790;28;20038;-52
2021/04/15 12:34:04;;;;;;;7.45;2.30;;;15.70;61.00;;;;;;4992389;28;20084;-51
2021/04/15 12:36:33;;;;;;;10.27;2.30;;;15.90;64.20;;;;;;4995892;28;20092;-62
2021/04/15 12:39:05;;;;;;;3.70;2.05;;;15.70;53.80;;;;;;4983256;28;20414;-62
2021/04/15 12:41:31;;;;;;;3.08;1.75;;;14.90;52.80;;;;;;4992454;28;20383;-64
2021/04/15 12:44:22;;;;;;;4.82;1.73;;;15.10;53.80;;;;;;4991813;28;20044;-62
2021/04/15 12:46:50;;;;;;;4.88;1.38;;;15.90;52.00;;;;;;4992553;28;20074;-61
2021/04/15 12:49:20;;;;;;;4.50;1.20;;;16.20;49.50;;;;;;4997074;28;20109;-63
2021/04/15 12:51:49;;;;;;;1.65;1.17;;;15.70;48.30;;;;;;4992706;28;20129;-62
2021/04/15 12:54:37;;;;;;;4.85;1.52;;;15.40;46.70;;;;;;4991634;28;20030;-60
2021/04/15 12:57:07;;;;;;;10.25;2.53;;;15.30;47.80;;;;;;5010946;28;20057;-62
2021/04/15 12:59:34;;;;;;;5.72;2.83;;;15.20;48.80;;;;;;5017363;28;20099;-61
2021/04/15 13:02:01;;;;;;;3.60;1.20;;;15.20;50.10;;;;;;4996262;28;20071;-61
2021/04/15 13:04:30;;;;;;;3.78;1.92;;;15.30;48.60;;;;;;5009340;28;20022;-61
2021/04/15 13:07:20;;;;;;;3.08;1.35;;;15.30;50.40;;;;;;4992339;28;20124;-60
2021/04/15 13:09:48;;;;;;;2.85;1.00;;;15.90;48.30;;;;;;4992169;28;20034;-61
2021/04/15 13:12:20;;;;;;;5.47;1.45;;;16.00;47.50;;;;;;4994969;28;20055;-63
2021/04/15 13:14:51;;;;;;;3.42;1.50;;;15.90;47.50;;;;;;4992003;28;20087;-61
2021/04/15 13:17:35;;;;;;;6.22;2.08;;;15.10;50.20;;;;;;4991145;28;20054;-60
2021/04/15 13:20:24;;;;;;;17.98;3.22;;;15.00;52.30;;;;;;5010186;28;20076;-60
2021/04/15 13:23:13;;;;;;;4.82;2.30;;;15.50;51.80;;;;;;4997841;28;20042;-62
2021/04/15 13:25:50;;;;;;;3.88;2.10;;;16.10;50.10;;;;;;4988026;28;20380;-51
2021/04/15 13:28:18;;;;;;;3.38;1.23;;;16.80;64.90;;;;;;5009406;28;20056;-50
2021/04/15 13:30:44;;;;;;;3.58;1.55;;;17.80;62.30;;;;;;5003991;28;20108;-50
2021/04/15 13:33:17;;;;;;;5.55;1.30;;;18.30;58.50;;;;;;4997032;28;20058;-49
2021/04/15 13:35:58;;;;;;;3.70;1.58;;;18.40;59.30;;;;;;4983756;28;20115;-51
2021/04/15 13:40:55;;;;;;;3.05;1.52;;;18.30;53.00;;;;;;4999687;28;20037;-50
2021/04/15 13:43:33;;;;;;;4.93;1.10;;;18.20;51.30;;;;;;5001347;28;20076;-51
2021/04/15 13:49:29;;;;;;;5.97;1.50;;;17.50;47.40;;;;;;5001500;28;20123;-50
2021/04/15 13:52:10;;;;;;;4.80;1.48;;;17.50;50.80;;;;;;4983790;28;20022;-51
2021/04/15 13:54:46;;;;;;;3.00;1.20;;;17.70;49.10;;;;;;5000574;28;20041;-62